Time;durP1;ratioP1;P1;durP2;ratioP2;P2;SDS_P1;SDS_P2;PMS_P1;PMS_P2;Temp;Humidity;BMP_temperature;BMP_pressure;BME280_temperature;BME280_humidity;BME280_pressure;Samples;Min_cycle;Max_cycle;Signal;HPM_P1;HPM_P2
2023/04/22 00:02:04;;;;;;;;;;;16.60;40.70;;;;;;5046392;28;19921;-62
2023/04/22 00:04:29;;;;;;;;;;;16.60;40.70;;;;;;5029272;28;20360;-64
2023/04/22 00:06:55;;;;;;;;;;;16.50;40.70;;;;;;5029380;28;19937;-62
2023/04/22 00:09:20;;;;;;;;;;;16.50;40.90;;;;;;5028903;28;19913;-62
2023/04/22 00:11:46;;;;;;;;;;;16.50;40.80;;;;;;5029137;28;19913;-61
2023/04/22 00:14:11;;;;;;;;;;;16.50;40.80;;;;;;5028200;28;20121;-61
2023/04/22 00:16:37;;;;;;;;;;;16.50;40.90;;;;;;5028495;28;20372;-61
2023/04/22 00:19:03;;;;;;;;;;;16.40;40.90;;;;;;5028419;28;20357;-61
2023/04/22 00:21:29;;;;;;;;;;;16.40;41.10;;;;;;5028565;28;20000;-61
2023/04/22 00:23:54;;;;;;;;;;;16.40;41.50;;;;;;5028383;28;19921;-62
2023/04/22 00:26:20;;;;;;;;;;;16.40;41.50;;;;;;5028385;28;19917;-62
2023/04/22 00:28:45;;;;;;;;;;;16.50;41.60;;;;;;5028723;28;19919;-62
2023/04/22 00:31:11;;;;;;;;;;;16.50;41.40;;;;;;5028422;28;19967;-62
2023/04/22 00:33:36;;;;;;;;;;;16.50;41.50;;;;;;5028684;28;19917;-63
2023/04/22 00:36:02;;;;;;;;;;;16.60;41.40;;;;;;5037285;28;20289;-62
2023/04/22 00:38:27;;;;;;;;;;;16.50;41.20;;;;;;5028506;28;20008;-62
2023/04/22 00:40:52;;;;;;;;;;;16.50;41.10;;;;;;5028178;28;20256;-61
2023/04/22 00:43:18;;;;;;;;;;;16.50;41.00;;;;;;5028254;28;20343;-63
2023/04/22 00:45:43;;;;;;;;;;;16.40;40.90;;;;;;5027759;28;19990;-60
2023/04/22 00:48:09;;;;;;;;;;;16.30;40.90;;;;;;5027806;28;19995;-61
2023/04/22 00:50:34;;;;;;;;;;;16.20;41.00;;;;;;5027976;28;19986;-61
2023/04/22 00:53:00;;;;;;;;;;;16.20;41.00;;;;;;5027666;28;19937;-61
2023/04/22 00:55:25;;;;;;;;;;;16.10;41.10;;;;;;5026822;28;20004;-61
2023/04/22 00:57:53;;;;;;;;;;;16.00;41.40;;;;;;5028027;28;19909;-62
2023/04/22 01:00:19;;;;;;;;;;;16.00;41.60;;;;;;5036035;28;19950;-61
2023/04/22 01:02:45;;;;;;;;;;;15.90;41.70;;;;;;5027941;28;19913;-61
2023/04/22 01:05:10;;;;;;;;;;;15.90;41.60;;;;;;5027972;28;19940;-62
2023/04/22 01:07:36;;;;;;;;;;;15.90;41.70;;;;;;5027146;28;19917;-61
2023/04/22 01:10:04;;;;;;;;;;;15.90;41.80;;;;;;5028425;28;20009;-61
2023/04/22 01:12:29;;;;;;;;;;;15.90;41.80;;;;;;5027871;28;19928;-61
2023/04/22 01:14:55;;;;;;;;;;;15.80;41.90;;;;;;5027786;28;20125;-62
2023/04/22 01:17:21;;;;;;;;;;;15.80;41.90;;;;;;5028349;28;19918;-62
2023/04/22 01:19:47;;;;;;;;;;;15.80;41.90;;;;;;5028236;28;19913;-62
2023/04/22 01:22:13;;;;;;;;;;;15.70;42.10;;;;;;5027297;28;20778;-62
2023/04/22 01:24:39;;;;;;;;;;;15.70;42.50;;;;;;5027120;28;19914;-62
2023/04/22 01:27:04;;;;;;;;;;;15.60;42.40;;;;;;5026310;28;19940;-62
2023/04/22 01:29:30;;;;;;;;;;;15.50;42.80;;;;;;5027196;28;20010;-62
2023/04/22 01:31:56;;;;;;;;;;;15.50;43.10;;;;;;5026839;28;20326;-61
2023/04/22 01:34:21;;;;;;;;;;;15.40;43.40;;;;;;5027206;28;19924;-61
2023/04/22 01:36:47;;;;;;;;;;;15.40;43.60;;;;;;5034355;28;20502;-62
2023/04/22 01:39:12;;;;;;;;;;;15.30;43.30;;;;;;5026614;28;20362;-62
2023/04/22 01:41:38;;;;;;;;;;;15.30;43.30;;;;;;5027367;28;20348;-61
2023/04/22 01:44:03;;;;;;;;;;;15.20;43.30;;;;;;5027205;28;19913;-61
2023/04/22 01:46:29;;;;;;;;;;;15.20;43.40;;;;;;5027478;28;19924;-62
2023/04/22 01:48:54;;;;;;;;;;;15.10;43.70;;;;;;5027614;28;19913;-61
2023/04/22 01:51:20;;;;;;;;;;;15.10;43.80;;;;;;5025996;28;19917;-62
2023/04/22 01:53:48;;;;;;;;;;;15.10;44.00;;;;;;5026910;28;19917;-61
2023/04/22 01:56:14;;;;;;;;;;;15.10;44.00;;;;;;5026443;28;19918;-63
2023/04/22 01:58:40;;;;;;;;;;;15.10;44.10;;;;;;5026934;28;19920;-62
2023/04/22 02:01:07;;;;;;;;;;;15.10;44.00;;;;;;5037749;28;19991;-61
2023/04/22 02:03:32;;;;;;;;;;;15.00;44.00;;;;;;5026703;28;20031;-62
2023/04/22 02:05:58;;;;;;;;;;;14.90;43.90;;;;;;5026866;28;20405;-61
2023/04/22 02:08:23;;;;;;;;;;;14.90;43.90;;;;;;5026793;28;19949;-62
2023/04/22 02:10:49;;;;;;;;;;;14.80;43.90;;;;;;5026892;28;19953;-61
2023/04/22 02:13:14;;;;;;;;;;;14.80;44.00;;;;;;5026887;28;19965;-58
2023/04/22 02:15:40;;;;;;;;;;;14.70;44.10;;;;;;5026907;28;20448;-58
2023/04/22 02:18:06;;;;;;;;;;;14.70;44.20;;;;;;5027228;28;19931;-60
2023/04/22 02:20:31;;;;;;;;;;;14.70;44.20;;;;;;5031123;28;20111;-58
2023/04/22 02:22:57;;;;;;;;;;;14.70;44.50;;;;;;5031200;28;20016;-58
2023/04/22 02:25:22;;;;;;;;;;;14.70;44.70;;;;;;5030579;28;20002;-58
2023/04/22 02:27:48;;;;;;;;;;;14.70;44.70;;;;;;5029723;28;19917;-61
2023/04/22 02:30:13;;;;;;;;;;;14.80;44.70;;;;;;5030235;28;19917;-59
2023/04/22 02:32:39;;;;;;;;;;;14.80;44.70;;;;;;5030607;28;20012;-58
2023/04/22 02:35:05;;;;;;;;;;;14.80;44.70;;;;;;5031449;28;19913;-59
2023/04/22 02:37:30;;;;;;;;;;;14.80;44.70;;;;;;5030725;28;19917;-58
2023/04/22 02:39:55;;;;;;;;;;;14.80;44.60;;;;;;5030320;28;20020;-59
2023/04/22 02:42:21;;;;;;;;;;;14.90;44.50;;;;;;5030283;28;19927;-59
2023/04/22 02:44:46;;;;;;;;;;;14.90;44.50;;;;;;5029479;28;19996;-59
2023/04/22 02:47:12;;;;;;;;;;;14.90;44.60;;;;;;5028460;28;20408;-59
2023/04/22 02:49:37;;;;;;;;;;;15.00;44.90;;;;;;5030297;28;20008;-58
2023/04/22 02:52:03;;;;;;;;;;;15.00;44.80;;;;;;5030222;28;20015;-59
2023/04/22 02:54:29;;;;;;;;;;;15.00;44.70;;;;;;5030555;28;20145;-58
2023/04/22 02:56:54;;;;;;;;;;;15.10;44.70;;;;;;5030338;28;19914;-58
2023/04/22 02:59:20;;;;;;;;;;;15.10;44.60;;;;;;5029664;28;19924;-58
2023/04/22 03:01:45;;;;;;;;;;;15.10;44.70;;;;;;5029979;28;19917;-58
2023/04/22 03:04:12;;;;;;;;;;;15.10;44.70;;;;;;5030283;28;19935;-58
2023/04/22 03:06:38;;;;;;;;;;;15.10;44.70;;;;;;5030153;28;19924;-58
2023/04/22 03:09:03;;;;;;;;;;;15.10;44.60;;;;;;5029825;28;20004;-59
2023/04/22 03:11:29;;;;;;;;;;;15.20;44.60;;;;;;5029550;28;19963;-59
2023/04/22 03:13:55;;;;;;;;;;;15.20;44.70;;;;;;5029499;28;20008;-58
2023/04/22 03:16:22;;;;;;;;;;;15.30;44.70;;;;;;5029551;28;19918;-58
2023/04/22 03:18:47;;;;;;;;;;;15.30;44.80;;;;;;5029735;28;19924;-58
2023/04/22 03:21:12;;;;;;;;;;;15.30;45.10;;;;;;5029480;28;20316;-59
2023/04/22 03:23:38;;;;;;;;;;;15.30;45.20;;;;;;5029691;28;19917;-59
2023/04/22 03:26:03;;;;;;;;;;;15.30;45.30;;;;;;5029672;28;19962;-59
2023/04/22 03:28:29;;;;;;;;;;;15.30;45.40;;;;;;5029488;28;19921;-59
2023/04/22 03:30:54;;;;;;;;;;;15.30;45.50;;;;;;5030571;28;19925;-58
2023/04/22 03:33:21;;;;;;;;;;;15.30;45.50;;;;;;5029134;28;20334;-59
2023/04/22 03:35:47;;;;;;;;;;;15.30;45.40;;;;;;5040246;28;20340;-58
2023/04/22 03:38:13;;;;;;;;;;;15.30;45.50;;;;;;5049437;28;19947;-59
2023/04/22 03:40:38;;;;;;;;;;;15.30;45.40;;;;;;5032682;28;19932;-59
2023/04/22 03:43:03;;;;;;;;;;;15.30;45.30;;;;;;5028947;28;20523;-62
2023/04/22 03:45:29;;;;;;;;;;;15.30;45.30;;;;;;5028972;28;20419;-59
2023/04/22 03:47:55;;;;;;;;;;;15.30;45.40;;;;;;5029582;28;19917;-59
2023/04/22 03:50:20;;;;;;;;;;;15.30;45.40;;;;;;5028998;28;19989;-58
2023/04/22 03:52:45;;;;;;;;;;;15.30;45.40;;;;;;5028835;28;19909;-59
2023/04/22 03:55:11;;;;;;;;;;;15.40;45.30;;;;;;5029490;28;19953;-59
2023/04/22 03:57:36;;;;;;;;;;;15.40;45.20;;;;;;5028581;28;20008;-59
2023/04/22 04:00:02;;;;;;;;;;;15.40;45.10;;;;;;5029118;28;19919;-58
2023/04/22 04:02:27;;;;;;;;;;;15.30;45.10;;;;;;5029233;28;19921;-59
2023/04/22 04:04:53;;;;;;;;;;;15.30;45.10;;;;;;5029090;28;19925;-59
2023/04/22 04:07:18;;;;;;;;;;;15.30;45.10;;;;;;5027614;28;19913;-59
2023/04/22 04:09:44;;;;;;;;;;;15.30;45.40;;;;;;5029137;28;20366;-60
2023/04/22 04:12:09;;;;;;;;;;;15.30;45.40;;;;;;5029062;28;19917;-58
2023/04/22 04:14:34;;;;;;;;;;;15.30;45.50;;;;;;5029010;28;19913;-63
2023/04/22 04:17:00;;;;;;;;;;;15.30;45.60;;;;;;5028394;28;19928;-58
2023/04/22 04:19:25;;;;;;;;;;;15.30;45.70;;;;;;5028768;28;19913;-59
2023/04/22 04:21:51;;;;;;;;;;;15.40;45.70;;;;;;5028597;28;19928;-58
2023/04/22 04:24:16;;;;;;;;;;;15.40;45.90;;;;;;5028673;28;20424;-58
2023/04/22 04:26:42;;;;;;;;;;;15.50;46.00;;;;;;5028365;28;20376;-59
2023/04/22 04:29:07;;;;;;;;;;;15.60;46.40;;;;;;5028307;28;19924;-59
2023/04/22 04:31:34;;;;;;;;;;;15.80;46.70;;;;;;5028115;28;20293;-58
2023/04/22 04:33:59;;;;;;;;;;;16.00;46.90;;;;;;5027215;28;20444;-59
2023/04/22 04:36:27;;;;;;;;;;;16.20;47.10;;;;;;5034940;28;20007;-59
2023/04/22 04:38:53;;;;;;;;;;;16.50;47.20;;;;;;5028519;28;19919;-59
2023/04/22 04:41:20;;;;;;;;;;;16.90;47.30;;;;;;5027970;28;19925;-58
2023/04/22 04:43:45;;;;;;;;;;;17.20;47.20;;;;;;5028629;28;19913;-59
2023/04/22 04:46:11;;;;;;;;;;;17.50;46.80;;;;;;5028531;28;19913;-59
2023/04/22 04:48:36;;;;;;;;;;;17.70;45.90;;;;;;5028276;28;19913;-58
2023/04/22 04:51:03;;;;;;;;;;;17.80;45.20;;;;;;5028318;28;19917;-58
2023/04/22 04:53:28;;;;;;;;;;;17.80;44.70;;;;;;5028659;28;20255;-59
2023/04/22 04:55:54;;;;;;;;;;;17.80;44.40;;;;;;5028490;28;19921;-58
2023/04/22 04:58:19;;;;;;;;;;;17.70;44.20;;;;;;5027898;28;20365;-59
2023/04/22 05:00:45;;;;;;;;;;;17.70;44.20;;;;;;5044013;28;20368;-59
2023/04/22 05:03:11;;;;;;;;;;;17.70;44.10;;;;;;5047881;28;19913;-59
2023/04/22 05:05:36;;;;;;;;;;;17.70;44.10;;;;;;5047697;28;19935;-59
2023/04/22 05:08:02;;;;;;;;;;;17.70;44.20;;;;;;5047987;28;19931;-60
2023/04/22 05:10:27;;;;;;;;;;;17.70;44.20;;;;;;5036320;28;19924;-59
2023/04/22 05:12:53;;;;;;;;;;;17.70;44.20;;;;;;5027383;28;19966;-59
2023/04/22 05:15:18;;;;;;;;;;;17.80;44.20;;;;;;5027484;28;19921;-59
2023/04/22 05:17:44;;;;;;;;;;;17.80;44.10;;;;;;5027965;28;20284;-59
2023/04/22 05:20:09;;;;;;;;;;;17.80;44.10;;;;;;5027659;28;20368;-59
2023/04/22 05:22:40;;;;;;;;;;;17.80;44.10;;;;;;5027483;28;20092;-59
2023/04/22 05:25:06;;;;;;;;;;;17.80;44.10;;;;;;5026178;28;19913;-59
2023/04/22 05:27:31;;;;;;;;;;;17.90;44.10;;;;;;5027971;28;19920;-59
2023/04/22 05:29:57;;;;;;;;;;;17.90;44.30;;;;;;5027708;28;20285;-58
2023/04/22 05:32:22;;;;;;;;;;;17.90;44.30;;;;;;5027255;28;19917;-62
2023/04/22 05:34:48;;;;;;;;;;;18.00;44.30;;;;;;5030385;28;20337;-58
2023/04/22 05:37:13;;;;;;;;;;;18.00;44.40;;;;;;5047200;28;20093;-59
2023/04/22 05:39:39;;;;;;;;;;;18.10;44.40;;;;;;5046843;28;19920;-58
2023/04/22 05:42:04;;;;;;;;;;;18.20;44.50;;;;;;5042019;28;19979;-58
2023/04/22 05:44:30;;;;;;;;;;;18.30;44.50;;;;;;5027241;28;19921;-59
2023/04/22 05:46:55;;;;;;;;;;;18.50;44.50;;;;;;5027272;28;20395;-58
2023/04/22 05:49:20;;;;;;;;;;;18.70;44.40;;;;;;5027589;28;19965;-59
2023/04/22 05:51:46;;;;;;;;;;;18.80;44.20;;;;;;5027557;28;19944;-61
2023/04/22 05:54:11;;;;;;;;;;;19.00;44.00;;;;;;5026922;28;19913;-58
2023/04/22 05:56:37;;;;;;;;;;;19.20;43.90;;;;;;5027447;28;19949;-58
2023/04/22 05:59:02;;;;;;;;;;;19.30;43.80;;;;;;5028938;28;20297;-58
2023/04/22 06:01:28;;;;;;;;;;;19.50;43.70;;;;;;5046915;28;20426;-58
2023/04/22 06:03:53;;;;;;;;;;;19.60;43.60;;;;;;5046759;28;19917;-58
2023/04/22 06:06:18;;;;;;;;;;;19.80;43.30;;;;;;5046875;28;19913;-57
2023/04/22 06:08:44;;;;;;;;;;;19.90;43.00;;;;;;5030560;28;19967;-59
2023/04/22 06:11:09;;;;;;;;;;;20.00;42.90;;;;;;5027150;28;19914;-58
2023/04/22 06:13:35;;;;;;;;;;;20.20;42.70;;;;;;5026564;28;19983;-58
2023/04/22 06:16:00;;;;;;;;;;;20.30;42.60;;;;;;5026850;28;19917;-60
2023/04/22 06:18:28;;;;;;;;;;;20.50;42.50;;;;;;5025006;28;20373;-59
2023/04/22 06:20:54;;;;;;;;;;;20.70;42.20;;;;;;5025149;28;19961;-59
2023/04/22 06:23:20;;;;;;;;;;;20.80;42.00;;;;;;5021278;28;19955;-59
2023/04/22 06:25:46;;;;;;;;;;;21.00;41.70;;;;;;5010948;28;19917;-61
2023/04/22 06:28:11;;;;;;;;;;;21.10;41.40;;;;;;5016064;28;19968;-58
2023/04/22 06:30:37;;;;;;;;;;;21.30;41.20;;;;;;5007296;28;20005;-58
2023/04/22 06:33:02;;;;;;;;;;;21.40;40.80;;;;;;5034143;28;19917;-59
2023/04/22 06:35:28;;;;;;;;;;;21.50;40.50;;;;;;5028209;28;19921;-59
2023/04/22 06:37:53;;;;;;;;;;;21.70;40.20;;;;;;5025684;28;19924;-59
2023/04/22 06:40:19;;;;;;;;;;;21.90;40.10;;;;;;5025368;28;20289;-59
2023/04/22 06:42:44;;;;;;;;;;;22.10;39.80;;;;;;5026883;28;19932;-58
2023/04/22 06:45:11;;;;;;;;;;;22.30;39.60;;;;;;5025568;28;19964;-59
2023/04/22 06:47:37;;;;;;;;;;;22.50;39.20;;;;;;5026678;28;19917;-59
2023/04/22 06:50:03;;;;;;;;;;;22.80;39.00;;;;;;5025687;28;19914;-58
2023/04/22 06:52:28;;;;;;;;;;;23.00;39.10;;;;;;5026875;28;20435;-59
2023/04/22 06:54:54;;;;;;;;;;;23.20;38.60;;;;;;5026070;28;19913;-59
2023/04/22 06:57:19;;;;;;;;;;;23.30;38.00;;;;;;5022573;28;20365;-61
2023/04/22 06:59:45;;;;;;;;;;;23.40;37.50;;;;;;5025870;28;19979;-61
2023/04/22 07:02:10;;;;;;;;;;;23.50;37.20;;;;;;5025855;28;20495;-62
2023/04/22 07:04:36;;;;;;;;;;;23.70;37.20;;;;;;5024560;28;19913;-62
2023/04/22 07:07:01;;;;;;;;;;;23.80;36.90;;;;;;5025855;28;20392;-62
2023/04/22 07:09:27;;;;;;;;;;;24.00;36.70;;;;;;5029452;28;20440;-60
2023/04/22 07:11:53;;;;;;;;;;;24.10;36.80;;;;;;5028899;28;19949;-62
2023/04/22 07:14:18;;;;;;;;;;;24.30;36.20;;;;;;5029190;28;20332;-62
2023/04/22 07:16:45;;;;;;;;;;;24.30;35.60;;;;;;5028639;28;19986;-65
2023/04/22 07:19:10;;;;;;;;;;;24.50;35.30;;;;;;5028719;28;19917;-62
2023/04/22 07:21:36;;;;;;;;;;;24.80;35.40;;;;;;5029356;28;20266;-61
2023/04/22 07:24:01;;;;;;;;;;;25.30;35.70;;;;;;5028141;28;19940;-62
2023/04/22 07:26:27;;;;;;;;;;;25.90;35.50;;;;;;5028778;28;19928;-61
2023/04/22 07:28:52;;;;;;;;;;;26.50;35.20;;;;;;5028802;28;20118;-61
2023/04/22 07:31:17;;;;;;;;;;;27.20;34.70;;;;;;5019528;28;20376;-61
2023/04/22 07:33:43;;;;;;;;;;;27.80;33.60;;;;;;5027587;28;20217;-61
2023/04/22 07:36:08;;;;;;;;;;;28.20;31.70;;;;;;5043414;28;19920;-62
2023/04/22 07:38:34;;;;;;;;;;;28.30;31.20;;;;;;5014338;28;19913;-61
2023/04/22 07:40:59;;;;;;;;;;;28.60;31.20;;;;;;5025857;28;19921;-61
2023/04/22 07:43:25;;;;;;;;;;;28.90;30.40;;;;;;5028052;28;19960;-64
2023/04/22 07:45:50;;;;;;;;;;;29.10;30.40;;;;;;5016564;28;19931;-61
2023/04/22 07:48:16;;;;;;;;;;;29.50;29.60;;;;;;5022108;28;20339;-61
2023/04/22 07:50:41;;;;;;;;;;;29.80;29.40;;;;;;5029386;28;19913;-61
2023/04/22 07:53:07;;;;;;;;;;;30.20;28.50;;;;;;5027126;28;20383;-61
2023/04/22 07:55:32;;;;;;;;;;;30.40;27.70;;;;;;5029258;28;19917;-61
2023/04/22 07:57:59;;;;;;;;;;;30.60;27.50;;;;;;5028054;28;19917;-60
2023/04/22 08:00:25;;;;;;;;;;;30.90;27.70;;;;;;5029241;28;20405;-60
2023/04/22 08:02:50;;;;;;;;;;;31.10;27.20;;;;;;5024369;28;19975;-60
2023/04/22 08:05:16;;;;;;;;;;;31.30;27.10;;;;;;5027459;28;19921;-61
2023/04/22 08:07:41;;;;;;;;;;;31.60;27.20;;;;;;5028103;28;20194;-61
2023/04/22 08:10:07;;;;;;;;;;;31.80;26.70;;;;;;5029345;28;20464;-60
2023/04/22 08:12:32;;;;;;;;;;;32.20;26.60;;;;;;5027928;28;20293;-61
2023/04/22 08:14:58;;;;;;;;;;;32.30;25.10;;;;;;5026873;28;19921;-60
2023/04/22 08:17:23;;;;;;;;;;;32.40;24.60;;;;;;5013565;28;20350;-61
2023/04/22 08:19:49;;;;;;;;;;;32.60;24.90;;;;;;5027079;28;20250;-61
2023/04/22 08:22:14;;;;;;;;;;;32.90;24.40;;;;;;5026364;28;20300;-61
2023/04/22 08:24:40;;;;;;;;;;;33.00;24.10;;;;;;5028085;28;19909;-61
2023/04/22 08:27:06;;;;;;;;;;;33.20;23.90;;;;;;5028460;28;20002;-60
2023/04/22 08:29:32;;;;;;;;;;;33.50;24.00;;;;;;5029142;28;19914;-61
2023/04/22 08:31:57;;;;;;;;;;;33.80;23.60;;;;;;5027848;28;19921;-61
2023/04/22 08:34:24;;;;;;;;;;;34.00;22.20;;;;;;5030061;28;19947;-61
2023/04/22 08:36:50;;;;;;;;;;;34.20;22.50;;;;;;5027980;28;19924;-61
2023/04/22 08:39:16;;;;;;;;;;;34.40;21.80;;;;;;5031772;28;19917;-60
2023/04/22 08:41:42;;;;;;;;;;;34.60;21.60;;;;;;5027112;28;20022;-61
2023/04/22 08:44:08;;;;;;;;;;;34.70;21.30;;;;;;5026647;28;19913;-60
2023/04/22 08:46:34;;;;;;;;;;;35.00;21.30;;;;;;5026586;28;20391;-60
2023/04/22 08:49:02;;;;;;;;;;;35.40;21.10;;;;;;5025528;28;19919;-60
2023/04/22 08:51:30;;;;;;;;;;;35.60;20.60;;;;;;5025628;28;19967;-60
2023/04/22 08:53:56;;;;;;;;;;;35.80;20.40;;;;;;5026775;28;20027;-60
2023/04/22 08:56:23;;;;;;;;;;;36.30;20.80;;;;;;5027330;28;20012;-60
2023/04/22 08:58:49;;;;;;;;;;;36.50;19.80;;;;;;5024519;28;19913;-60
2023/04/22 09:01:16;;;;;;;;;;;36.80;19.80;;;;;;5025935;28;19929;-60
2023/04/22 09:03:42;;;;;;;;;;;36.80;18.90;;;;;;5024787;28;19917;-60
2023/04/22 09:06:09;;;;;;;;;;;36.90;18.80;;;;;;5024264;28;20404;-61
2023/04/22 09:08:34;;;;;;;;;;;37.00;18.50;;;;;;5027093;28;20027;-60
2023/04/22 09:11:00;;;;;;;;;;;37.20;18.70;;;;;;5025826;28;20004;-60
2023/04/22 09:13:26;;;;;;;;;;;37.30;18.40;;;;;;5034824;28;19944;-60
2023/04/22 09:15:51;;;;;;;;;;;37.30;18.20;;;;;;5027502;28;20405;-61
2023/04/22 09:18:20;;;;;;;;;;;37.50;18.10;;;;;;5028775;28;19928;-60
2023/04/22 09:20:46;;;;;;;;;;;37.60;18.30;;;;;;5023465;28;19927;-61
2023/04/22 09:23:12;;;;;;;;;;;37.80;18.20;;;;;;5028467;28;20262;-61
2023/04/22 09:25:37;;;;;;;;;;;38.00;18.20;;;;;;5027505;28;19975;-61
2023/04/22 09:28:03;;;;;;;;;;;38.00;17.60;;;;;;5037727;28;20007;-61
2023/04/22 09:30:29;;;;;;;;;;;37.80;17.10;;;;;;5041162;28;20002;-61
2023/04/22 09:32:55;;;;;;;;;;;37.70;17.40;;;;;;5047661;28;19951;-59
2023/04/22 09:35:28;;;;;;;;;;;37.70;17.70;;;;;;5034897;28;20310;-60
2023/04/22 09:37:54;;;;;;;;;;;37.70;17.70;;;;;;5032039;28;19913;-59
2023/04/22 09:40:20;;;;;;;;;;;37.50;17.70;;;;;;5031904;28;19925;-60
2023/04/22 09:42:50;;;;;;;;;;;37.60;17.90;;;;;;5027275;28;19923;-60
2023/04/22 09:45:34;;;;;;;;;;;37.60;17.70;;;;;;5024697;28;20028;-61
2023/04/22 09:48:08;;;;;;;;;;;37.40;17.60;;;;;;5025286;28;19913;-61
2023/04/22 09:50:34;;;;;;;;;;;37.30;17.60;;;;;;5011936;28;20328;-61
2023/04/22 09:53:00;;;;;;;;;;;37.20;18.00;;;;;;5026825;28;19913;-64
2023/04/22 09:55:27;;;;;;;;;;;37.10;17.80;;;;;;5020992;28;19921;-61
2023/04/22 09:57:53;;;;;;;;;;;37.00;17.70;;;;;;5025500;28;19935;-61
2023/04/22 10:00:19;;;;;;;;;;;37.00;17.80;;;;;;5022113;28;19917;-61
2023/04/22 10:02:45;;;;;;;;;;;37.10;17.90;;;;;;5019226;28;19921;-61
2023/04/22 10:05:11;;;;;;;;;;;37.20;18.10;;;;;;5015724;28;19921;-61
2023/04/22 10:07:38;;;;;;;;;;;37.30;17.90;;;;;;5026202;28;20420;-61
2023/04/22 10:10:06;;;;;;;;;;;37.20;17.70;;;;;;5042542;28;20355;-61
2023/04/22 10:12:33;;;;;;;;;;;37.30;17.90;;;;;;5034707;28;19925;-65
2023/04/22 10:14:59;;;;;;;;;;;37.30;17.50;;;;;;5026485;28;19913;-61
2023/04/22 10:17:25;;;;;;;;;;;37.30;17.60;;;;;;5015784;28;20352;-61
2023/04/22 10:19:51;;;;;;;;;;;37.10;17.30;;;;;;5015538;28;19988;-60
2023/04/22 10:22:16;;;;;;;;;;;37.10;17.60;;;;;;5026829;28;20254;-63
2023/04/22 10:24:43;;;;;;;;;;;37.10;17.40;;;;;;5025882;28;19924;-61
2023/04/22 10:27:09;;;;;;;;;;;37.10;17.60;;;;;;5026699;28;20385;-61
2023/04/22 10:29:37;;;;;;;;;;;37.30;18.00;;;;;;5026147;28;19983;-60
2023/04/22 10:32:02;;;;;;;;;;;37.40;17.70;;;;;;5026381;28;20397;-60
2023/04/22 10:34:28;;;;;;;;;;;37.60;17.80;;;;;;5026968;28;20004;-60
2023/04/22 10:36:57;;;;;;;;;;;37.40;17.30;;;;;;5031458;28;19925;-60
2023/04/22 10:39:23;;;;;;;;;;;37.30;17.50;;;;;;5027548;28;20228;-60
2023/04/22 10:41:49;;;;;;;;;;;37.00;17.50;;;;;;5031072;28;20593;-60
2023/04/22 10:44:15;;;;;;;;;;;36.70;17.70;;;;;;5011037;28;19913;-60
2023/04/22 10:46:41;;;;;;;;;;;36.30;17.70;;;;;;5011275;28;20344;-60
2023/04/22 10:49:07;;;;;;;;;;;36.20;17.90;;;;;;5010529;28;19914;-60
2023/04/22 10:51:40;;;;;;;;;;;36.20;18.40;;;;;;5020994;28;19932;-60
2023/04/22 10:54:05;;;;;;;;;;;36.20;18.40;;;;;;5030563;28;19923;-60
2023/04/22 10:56:31;;;;;;;;;;;36.20;18.20;;;;;;5026046;28;20145;-60
2023/04/22 10:58:56;;;;;;;;;;;36.30;18.30;;;;;;5026201;28;20004;-59
2023/04/22 11:01:22;;;;;;;;;;;36.60;18.10;;;;;;5028583;28;20405;-62
2023/04/22 11:03:47;;;;;;;;;;;36.60;17.90;;;;;;5030239;28;19956;-62
2023/04/22 11:06:14;;;;;;;;;;;36.50;18.00;;;;;;5029043;28;19913;-60
2023/04/22 11:08:44;;;;;;;;;;;36.40;18.10;;;;;;5030327;28;19921;-62
2023/04/22 11:11:09;;;;;;;;;;;36.40;18.40;;;;;;5030069;28;20356;-60
2023/04/22 11:13:35;;;;;;;;;;;36.30;18.30;;;;;;5029376;28;19913;-59
2023/04/22 11:16:01;;;;;;;;;;;36.20;18.20;;;;;;5028827;28;19920;-60
2023/04/22 11:18:27;;;;;;;;;;;36.00;18.40;;;;;;5030049;28;20286;-60
2023/04/22 11:20:52;;;;;;;;;;;35.90;18.30;;;;;;5029934;28;19920;-60
2023/04/22 11:23:22;;;;;;;;;;;36.10;18.30;;;;;;5029128;28;20460;-60
2023/04/22 11:25:52;;;;;;;;;;;36.30;18.00;;;;;;5027122;28;19924;-60
2023/04/22 11:28:19;;;;;;;;;;;36.50;18.00;;;;;;5029503;28;20273;-61
2023/04/22 11:30:44;;;;;;;;;;;36.70;17.90;;;;;;5027234;28;19952;-60
2023/04/22 11:33:13;;;;;;;;;;;36.90;17.80;;;;;;5029517;28;19917;-60
2023/04/22 11:35:39;;;;;;;;;;;37.00;17.60;;;;;;5038242;28;19924;-60
2023/04/22 11:38:05;;;;;;;;;;;37.10;17.60;;;;;;5049532;28;20312;-60
2023/04/22 11:40:40;;;;;;;;;;;37.30;17.50;;;;;;5025694;28;20008;-60
2023/04/22 11:43:07;;;;;;;;;;;37.60;17.40;;;;;;5009680;28;19917;-60
2023/04/22 11:45:33;;;;;;;;;;;37.80;17.20;;;;;;5009855;28;19917;-60
2023/04/22 11:47:59;;;;;;;;;;;38.10;17.00;;;;;;5010466;28;19924;-60
2023/04/22 11:50:26;;;;;;;;;;;38.50;17.00;;;;;;5018372;28;19917;-61
2023/04/22 11:52:51;;;;;;;;;;;38.50;16.30;;;;;;5028859;28;19920;-61
2023/04/22 11:55:19;;;;;;;;;;;38.40;16.10;;;;;;5026842;28;19917;-61
2023/04/22 11:57:50;;;;;;;;;;;38.20;16.00;;;;;;5020375;28;19913;-61
2023/04/22 12:00:16;;;;;;;;;;;38.20;16.10;;;;;;5010922;28;20119;-61
2023/04/22 12:02:44;;;;;;;;;;;38.00;16.20;;;;;;5028215;28;19924;-60
2023/04/22 12:05:11;;;;;;;;;;;37.80;16.40;;;;;;5030183;28;19917;-60
2023/04/22 12:07:37;;;;;;;;;;;37.60;16.30;;;;;;5029133;28;20392;-60
2023/04/22 12:10:06;;;;;;;;;;;37.10;16.50;;;;;;5036965;28;19964;-63
2023/04/22 12:12:34;;;;;;;;;;;36.60;16.90;;;;;;5030203;28;20297;-61
2023/04/22 12:15:09;;;;;;;;;;;36.00;17.30;;;;;;5036091;28;20017;-61
2023/04/22 12:17:34;;;;;;;;;;;35.50;17.50;;;;;;5039524;28;20401;-61
2023/04/22 12:20:00;;;;;;;;;;;35.30;18.00;;;;;;5030488;28;20003;-61
2023/04/22 12:22:26;;;;;;;;;;;35.60;18.00;;;;;;5033172;28;19967;-60
2023/04/22 12:24:52;;;;;;;;;;;35.80;17.80;;;;;;5029152;28;19917;-61
2023/04/22 12:27:17;;;;;;;;;;;36.20;17.90;;;;;;5028794;28;19914;-59
2023/04/22 12:29:53;;;;;;;;;;;36.70;17.50;;;;;;5028823;28;19987;-60
2023/04/22 12:32:19;;;;;;;;;;;37.00;17.10;;;;;;5028662;28;19987;-60
2023/04/22 12:34:45;;;;;;;;;;;37.00;16.90;;;;;;5041149;28;20440;-60
2023/04/22 12:37:10;;;;;;;;;;;37.20;16.80;;;;;;5028685;28;20008;-60
2023/04/22 12:39:36;;;;;;;;;;;37.00;16.50;;;;;;5028632;28;20282;-60
2023/04/22 12:42:04;;;;;;;;;;;37.10;16.60;;;;;;5041446;28;19917;-60
2023/04/22 12:44:30;;;;;;;;;;;37.00;16.50;;;;;;5048673;28;20015;-62
2023/04/22 12:46:55;;;;;;;;;;;37.00;16.50;;;;;;5043227;28;20015;-61
2023/04/22 12:49:21;;;;;;;;;;;37.30;16.70;;;;;;5037492;28;19916;-61
2023/04/22 12:51:46;;;;;;;;;;;37.10;16.40;;;;;;5035131;28;19921;-62
2023/04/22 12:54:12;;;;;;;;;;;37.00;16.70;;;;;;5018957;28;19921;-61
2023/04/22 12:56:37;;;;;;;;;;;37.00;16.70;;;;;;5024197;28;20355;-61
2023/04/22 12:59:03;;;;;;;;;;;37.20;16.70;;;;;;5027212;28;20019;-60
2023/04/22 13:01:28;;;;;;;;;;;37.10;16.60;;;;;;5028428;28;20509;-61
2023/04/22 13:03:54;;;;;;;;;;;37.00;16.80;;;;;;5026952;28;19944;-60
2023/04/22 13:06:19;;;;;;;;;;;37.00;16.80;;;;;;5027147;28;19921;-61
2023/04/22 13:08:45;;;;;;;;;;;36.40;16.90;;;;;;5027795;28;19920;-61
2023/04/22 13:11:10;;;;;;;;;;;35.60;17.30;;;;;;5026196;28;20511;-60
2023/04/22 13:13:36;;;;;;;;;;;34.70;17.80;;;;;;5027030;28;19913;-62
2023/04/22 13:16:01;;;;;;;;;;;34.20;18.30;;;;;;5020247;28;19918;-61
2023/04/22 13:18:27;;;;;;;;;;;33.60;18.80;;;;;;5008108;28;19913;-62
2023/04/22 13:20:55;;;;;;;;;;;33.30;19.20;;;;;;5026618;28;19948;-60
2023/04/22 13:23:22;;;;;;;;;;;33.00;19.60;;;;;;5027841;28;19917;-61
2023/04/22 13:25:52;;;;;;;;;;;32.80;19.80;;;;;;5022763;28;20056;-61
2023/04/22 13:28:17;;;;;;;;;;;32.80;20.00;;;;;;5011254;28;19947;-61
2023/04/22 13:30:43;;;;;;;;;;;33.20;19.90;;;;;;5007889;28;19922;-62
2023/04/22 13:33:08;;;;;;;;;;;33.80;19.40;;;;;;5008719;28;20067;-61
2023/04/22 13:35:34;;;;;;;;;;;34.00;19.10;;;;;;5036139;28;20308;-61
2023/04/22 13:38:00;;;;;;;;;;;34.30;18.90;;;;;;5024848;28;19920;-61
2023/04/22 13:40:26;;;;;;;;;;;34.80;18.60;;;;;;5026337;28;20284;-60
2023/04/22 13:42:53;;;;;;;;;;;34.90;18.30;;;;;;5025173;28;21249;-60
2023/04/22 13:45:19;;;;;;;;;;;34.90;18.20;;;;;;5026899;28;19921;-59
2023/04/22 13:47:44;;;;;;;;;;;34.70;18.40;;;;;;5022349;28;19915;-60
2023/04/22 13:50:10;;;;;;;;;;;34.30;18.50;;;;;;5016150;28;19916;-59
2023/04/22 13:52:35;;;;;;;;;;;33.70;19.00;;;;;;5024992;28;19952;-60
2023/04/22 13:55:01;;;;;;;;;;;33.30;19.40;;;;;;5021719;28;20364;-60
2023/04/22 13:57:27;;;;;;;;;;;32.80;19.70;;;;;;5026008;28;20013;-60
2023/04/22 13:59:52;;;;;;;;;;;32.60;20.10;;;;;;5024094;28;20016;-59
2023/04/22 14:02:18;;;;;;;;;;;32.40;20.40;;;;;;5026343;28;19960;-60
2023/04/22 14:04:43;;;;;;;;;;;32.30;20.50;;;;;;5033162;28;20036;-60
2023/04/22 14:07:09;;;;;;;;;;;32.20;20.50;;;;;;5026382;28;19921;-61
2023/04/22 14:09:35;;;;;;;;;;;31.90;20.40;;;;;;5026145;28;19921;-61